createdAt,value
2022-09-17T00:00:21.945Z,69.16
2022-09-17T00:02:49.751Z,67.96
2022-09-17T00:05:16.085Z,68.75
2022-09-17T00:07:42.347Z,68.98
2022-09-17T00:10:08.599Z,68.81
2022-09-17T00:12:34.854Z,68.45
2022-09-17T00:15:01.118Z,69.35
2022-09-17T00:17:27.376Z,69.58
2022-09-17T00:19:53.649Z,69.62
2022-09-17T00:22:19.905Z,69.30
2022-09-17T00:24:46.180Z,68.67
2022-09-17T00:27:12.440Z,68.78
2022-09-17T00:29:39.208Z,68.67
2022-09-17T00:32:05.470Z,69.22
2022-09-17T00:34:31.743Z,68.57
2022-09-17T00:36:58.005Z,68.53
2022-09-17T00:39:24.274Z,68.97
2022-09-17T00:41:50.542Z,69.06
2022-09-17T00:44:16.880Z,69.59
2022-09-17T00:46:43.201Z,69.47
2022-09-17T00:49:09.559Z,69.16
2022-09-17T00:51:35.835Z,68.80
2022-09-17T00:54:02.104Z,69.16
2022-09-17T00:56:28.356Z,69.01
2022-09-17T00:58:54.623Z,69.16
2022-09-17T01:01:20.942Z,68.96
2022-09-17T01:03:47.224Z,69.00
2022-09-17T01:06:13.499Z,69.38
2022-09-17T01:08:39.766Z,70.08
2022-09-17T01:11:06.047Z,69.27
2022-09-17T01:13:32.296Z,69.26
2022-09-17T01:15:58.704Z,69.39
2022-09-17T01:18:24.985Z,70.14
2022-09-17T01:20:51.262Z,69.58
2022-09-17T01:23:17.644Z,69.75
2022-09-17T01:25:43.970Z,69.00
2022-09-17T01:28:10.225Z,69.43
2022-09-17T01:30:36.496Z,69.84
2022-09-17T01:33:02.794Z,69.49
2022-09-17T01:35:29.073Z,69.66
2022-09-17T01:37:55.392Z,69.97
2022-09-17T01:40:24.369Z,70.50
2022-09-17T01:42:50.699Z,69.33
2022-09-17T01:45:16.957Z,70.14
2022-09-17T01:47:43.223Z,70.00
2022-09-17T01:50:09.626Z,69.93
2022-09-17T01:52:35.897Z,69.23
2022-09-17T01:55:02.163Z,69.55
2022-09-17T01:57:28.415Z,70.27
2022-09-17T01:59:54.667Z,69.78
2022-09-17T02:02:20.951Z,69.82
2022-09-17T02:04:47.231Z,70.43
2022-09-17T02:07:13.611Z,70.51
2022-09-17T02:09:39.870Z,70.49
2022-09-17T02:12:06.128Z,70.38
2022-09-17T02:14:32.393Z,70.35
2022-09-17T02:16:58.693Z,70.72
2022-09-17T02:19:24.960Z,71.32
2022-09-17T02:21:51.229Z,70.76
2022-09-17T02:24:18.066Z,71.14
2022-09-17T02:26:44.319Z,70.87
2022-09-17T02:29:10.584Z,70.93
2022-09-17T02:31:36.899Z,70.92
2022-09-17T02:34:03.223Z,70.68
2022-09-17T02:36:29.557Z,72.02
2022-09-17T02:38:55.856Z,71.43
2022-09-17T02:41:22.113Z,71.13
2022-09-17T02:43:48.387Z,71.31
2022-09-17T02:46:14.705Z,71.06
2022-09-17T02:48:41.005Z,70.75
2022-09-17T02:51:07.259Z,71.75
2022-09-17T02:53:33.616Z,71.53
2022-09-17T02:55:59.887Z,71.92
2022-09-17T02:58:26.192Z,72.03
2022-09-17T03:00:52.489Z,71.74
2022-09-17T03:03:18.793Z,71.90
2022-09-17T03:05:45.490Z,72.00
2022-09-17T03:08:12.325Z,71.90
2022-09-17T03:10:38.587Z,72.17
2022-09-17T03:13:04.837Z,71.76
2022-09-17T03:15:31.108Z,72.22
2022-09-17T03:17:57.367Z,72.21
2022-09-17T03:20:23.623Z,72.30
2022-09-17T03:22:49.880Z,72.49
2022-09-17T03:25:16.142Z,72.25
2022-09-17T03:27:42.396Z,71.90
2022-09-17T03:30:08.681Z,72.42
2022-09-17T03:32:34.940Z,73.04
2022-09-17T03:35:01.201Z,73.00
2022-09-17T03:37:32.242Z,73.46
2022-09-17T03:39:59.302Z,73.54
2022-09-17T03:42:25.600Z,73.86
2022-09-17T03:44:51.863Z,73.80
2022-09-17T03:47:18.132Z,73.64
2022-09-17T03:49:44.382Z,73.56
2022-09-17T03:52:10.641Z,73.26
2022-09-17T03:54:36.896Z,73.13
2022-09-17T03:57:03.242Z,73.93
2022-09-17T03:59:30.035Z,73.86
2022-09-17T04:01:56.381Z,73.98
2022-09-17T04:04:22.743Z,74.06
2022-09-17T04:06:49.214Z,74.25
2022-09-17T04:09:15.487Z,74.81
2022-09-17T04:11:41.745Z,74.92
2022-09-17T04:14:08.037Z,75.05
2022-09-17T04:16:34.343Z,74.94
2022-09-17T04:19:00.834Z,74.70
2022-09-17T04:21:27.497Z,74.70
2022-09-17T04:23:53.773Z,75.10
2022-09-17T04:26:20.049Z,75.90
2022-09-17T04:28:46.369Z,76.67
2022-09-17T04:31:12.711Z,77.08
2022-09-17T04:33:39.040Z,76.48
2022-09-17T04:36:05.304Z,77.13
2022-09-17T04:38:31.578Z,78.01
2022-09-17T04:40:57.881Z,77.72
2022-09-17T04:43:24.149Z,78.18
2022-09-17T04:45:50.738Z,78.27
2022-09-17T04:48:17.007Z,78.61
2022-09-17T04:50:43.366Z,78.33
2022-09-17T04:53:09.648Z,78.67
2022-09-17T04:55:35.925Z,80.50
2022-09-17T04:58:02.608Z,80.44
2022-09-17T05:00:28.873Z,80.68
2022-09-17T05:02:55.127Z,81.02
2022-09-17T05:05:21.410Z,81.79
2022-09-17T05:07:50.809Z,81.10
2022-09-17T05:10:17.069Z,82.00
2022-09-17T05:12:43.620Z,82.01
2022-09-17T05:15:09.912Z,82.66
2022-09-17T05:17:36.179Z,81.99
2022-09-17T05:20:02.530Z,83.21
2022-09-17T05:22:28.798Z,82.93
2022-09-17T05:24:55.047Z,82.44
2022-09-17T05:27:21.317Z,82.30
2022-09-17T05:29:47.590Z,82.43
2022-09-17T05:32:13.845Z,83.66
2022-09-17T05:34:40.504Z,83.83
2022-09-17T05:37:06.760Z,83.09
2022-09-17T05:39:33.310Z,84.76
2022-09-17T05:42:03.645Z,84.99
2022-09-17T05:44:29.903Z,84.83
2022-09-17T05:46:56.216Z,83.59
2022-09-17T05:49:22.554Z,83.54
2022-09-17T05:51:48.817Z,84.24
2022-09-17T05:54:15.162Z,83.72
2022-09-17T05:56:41.420Z,83.71
2022-09-17T05:59:07.840Z,84.01
2022-09-17T06:01:34.142Z,84.27
2022-09-17T06:04:02.514Z,83.38
2022-09-17T06:06:30.452Z,84.29
2022-09-17T06:08:56.712Z,84.22
2022-09-17T06:11:22.975Z,83.46
2022-09-17T06:13:53.063Z,83.47
2022-09-17T06:16:19.384Z,84.02
2022-09-17T06:18:45.731Z,84.16
2022-09-17T06:21:12.048Z,84.13
2022-09-17T06:23:38.308Z,84.14
2022-09-17T06:26:04.566Z,85.14
2022-09-17T06:28:30.839Z,85.24
2022-09-17T06:30:57.197Z,85.94
2022-09-17T06:33:23.664Z,86.30
2022-09-17T06:35:49.943Z,85.58
2022-09-17T06:38:16.227Z,86.61
2022-09-17T06:40:42.604Z,85.87
2022-09-17T06:43:08.931Z,86.44
2022-09-17T06:45:35.200Z,85.44
2022-09-17T06:48:01.471Z,86.15
2022-09-17T06:50:27.736Z,85.41
2022-09-17T06:52:54.017Z,85.58
2022-09-17T06:55:20.293Z,85.51
2022-09-17T06:57:46.585Z,85.73
2022-09-17T07:00:12.859Z,85.08
2022-09-17T07:02:39.130Z,85.84
2022-09-17T07:05:05.385Z,86.24
2022-09-17T07:07:32.609Z,87.29
2022-09-17T07:09:58.861Z,88.96
2022-09-17T07:12:25.243Z,89.09
2022-09-17T07:14:51.604Z,90.85
2022-09-17T07:17:17.862Z,93.78
2022-09-17T07:19:44.128Z,94.89
2022-09-17T07:22:10.397Z,95.91
2022-09-17T07:24:36.668Z,97.13
2022-09-17T07:27:02.944Z,99.84
2022-09-17T07:29:29.209Z,100.00
2022-09-17T07:31:55.664Z,100.00
2022-09-17T07:34:22.002Z,98.40
2022-09-17T07:36:48.261Z,99.95
2022-09-17T07:39:15.008Z,99.25
2022-09-17T07:41:41.267Z,97.94
2022-09-17T07:44:07.843Z,96.40
2022-09-17T07:46:34.141Z,94.97
2022-09-17T07:49:00.476Z,94.32
2022-09-17T07:51:28.309Z,93.39
2022-09-17T07:53:54.602Z,93.28
2022-09-17T07:56:20.886Z,93.48
2022-09-17T07:58:47.164Z,92.34
2022-09-17T08:01:13.466Z,92.00
2022-09-17T08:03:41.673Z,91.57
2022-09-17T08:06:07.934Z,91.71
2022-09-17T08:08:34.586Z,92.46
2022-09-17T08:11:00.887Z,91.84
2022-09-17T08:13:27.156Z,92.20
2022-09-17T08:15:53.474Z,92.51
2022-09-17T08:18:19.973Z,91.71
2022-09-17T08:20:46.564Z,90.95
2022-09-17T08:23:12.813Z,90.38
2022-09-17T08:25:39.088Z,89.05
2022-09-17T08:28:05.342Z,87.26
2022-09-17T08:30:32.319Z,86.42
2022-09-17T08:32:58.687Z,86.37
2022-09-17T08:35:26.141Z,85.38
2022-09-17T08:37:52.422Z,85.53
2022-09-17T08:40:19.350Z,85.20
2022-09-17T08:42:45.726Z,84.36
2022-09-17T08:45:14.200Z,82.28
2022-09-17T08:47:41.133Z,82.48
2022-09-17T08:50:07.411Z,81.80
2022-09-17T08:52:34.191Z,79.76
2022-09-17T08:55:00.469Z,77.31
2022-09-17T08:57:26.983Z,77.34
2022-09-17T08:59:53.242Z,77.27
2022-09-17T09:02:19.571Z,74.91
2022-09-17T09:04:45.895Z,75.63
2022-09-17T09:07:12.184Z,74.62
2022-09-17T09:09:39.014Z,76.25
2022-09-17T09:12:07.892Z,76.00
2022-09-17T09:14:34.164Z,77.10
2022-09-17T09:17:01.018Z,76.12
2022-09-17T09:19:27.314Z,74.03
2022-09-17T09:21:53.653Z,74.78
2022-09-17T09:24:19.903Z,71.26
2022-09-17T09:26:46.187Z,71.87
2022-09-17T09:29:12.429Z,71.90
2022-09-17T09:31:38.727Z,70.35
2022-09-17T09:34:05.037Z,71.22
2022-09-17T09:36:31.320Z,70.26
2022-09-17T09:38:57.635Z,68.93
2022-09-17T09:41:23.899Z,69.10
2022-09-17T09:44:03.729Z,68.36
2022-09-17T09:46:36.612Z,68.58
2022-09-17T09:49:02.932Z,68.36
2022-09-17T09:51:29.255Z,68.87
2022-09-17T09:53:55.525Z,71.14
2022-09-17T09:56:21.790Z,71.36
2022-09-17T09:58:48.049Z,69.95
2022-09-17T10:01:14.524Z,71.02
2022-09-17T10:03:41.073Z,71.78
2022-09-17T10:06:07.323Z,70.02
2022-09-17T10:08:33.579Z,69.20
2022-09-17T10:10:59.893Z,69.45
2022-09-17T10:13:26.267Z,67.71
2022-09-17T10:15:52.614Z,67.63
2022-09-17T10:18:19.011Z,68.10
2022-09-17T10:20:45.281Z,69.68
2022-09-17T10:23:11.539Z,68.60
2022-09-17T10:25:37.784Z,67.73
2022-09-17T10:28:04.048Z,68.96
2022-09-17T10:30:31.109Z,70.35
2022-09-17T10:32:57.309Z,71.42
2022-09-17T10:35:23.563Z,72.38
2022-09-17T10:37:49.814Z,73.67
2022-09-17T10:40:16.147Z,71.05
2022-09-17T10:42:42.437Z,71.25
2022-09-17T10:45:08.707Z,70.43
2022-09-17T10:47:34.959Z,69.72
2022-09-17T10:50:01.515Z,69.11
2022-09-17T10:52:27.835Z,69.44
2022-09-17T10:54:54.096Z,69.35
2022-09-17T10:57:20.356Z,67.81
2022-09-17T10:59:46.620Z,68.41
2022-09-17T11:02:12.991Z,68.46
2022-09-17T11:04:39.309Z,67.86
2022-09-17T11:07:05.707Z,67.42
2022-09-17T11:09:31.967Z,66.87
2022-09-17T11:11:58.231Z,64.54
2022-09-17T11:14:24.479Z,64.06
2022-09-17T11:16:50.801Z,65.37
2022-09-17T11:19:17.121Z,65.85
2022-09-17T11:21:45.393Z,64.33
2022-09-17T11:24:11.642Z,64.45
2022-09-17T11:26:37.903Z,65.25
2022-09-17T11:29:04.163Z,65.37
2022-09-17T11:31:30.483Z,64.88
2022-09-17T11:33:56.821Z,64.11
2022-09-17T11:36:23.073Z,63.82
2022-09-17T11:38:49.428Z,64.29
2022-09-17T11:41:15.748Z,63.89
2022-09-17T11:43:42.013Z,63.23
2022-09-17T11:46:08.804Z,63.28
2022-09-17T11:48:35.129Z,61.60
2022-09-17T11:51:01.533Z,61.50
2022-09-17T11:53:27.801Z,63.63
2022-09-17T11:55:54.059Z,68.90
2022-09-17T11:58:20.332Z,71.60
2022-09-17T12:00:46.712Z,73.16
2022-09-17T12:03:13.027Z,74.01
2022-09-17T12:05:39.315Z,72.44
2022-09-17T12:08:05.616Z,70.72
2022-09-17T12:10:31.947Z,71.11
2022-09-17T12:12:58.211Z,70.50
2022-09-17T12:15:24.496Z,69.87
2022-09-17T12:17:50.781Z,70.02
2022-09-17T12:20:17.041Z,70.42
2022-09-17T12:22:43.320Z,70.49
2022-09-17T12:25:09.588Z,71.99
2022-09-17T12:27:35.884Z,72.30
2022-09-17T12:30:02.145Z,71.51
2022-09-17T12:32:28.405Z,70.11
2022-09-17T12:34:54.695Z,70.01
2022-09-17T12:37:20.979Z,70.58
2022-09-17T12:39:47.245Z,70.66
2022-09-17T12:42:13.521Z,71.53
2022-09-17T12:44:39.782Z,68.92
2022-09-17T12:47:06.067Z,70.66
2022-09-17T12:49:32.331Z,70.47
2022-09-17T12:51:58.603Z,70.18
2022-09-17T12:54:24.885Z,67.39
2022-09-17T12:56:51.161Z,68.51
2022-09-17T12:59:19.293Z,66.90
2022-09-17T13:01:45.732Z,67.94
2022-09-17T13:04:12.805Z,65.54
2022-09-17T13:06:39.066Z,66.45
2022-09-17T13:09:06.066Z,63.89
2022-09-17T13:11:32.472Z,62.64
2022-09-17T13:13:58.723Z,63.72
2022-09-17T13:16:25.066Z,63.36
2022-09-17T13:19:14.930Z,64.78
2022-09-17T13:21:40.201Z,63.46
2022-09-17T13:24:06.594Z,64.31
2022-09-17T13:26:33.010Z,64.77
2022-09-17T13:28:59.285Z,68.96
2022-09-17T13:31:25.586Z,70.60
2022-09-17T13:33:51.884Z,67.40
2022-09-17T13:36:18.143Z,66.71
2022-09-17T13:38:44.383Z,65.44
2022-09-17T13:41:10.640Z,65.91
2022-09-17T13:43:38.024Z,65.39
2022-09-17T13:46:08.752Z,68.26
2022-09-17T13:48:35.063Z,66.17
2022-09-17T13:51:04.788Z,66.02
2022-09-17T13:53:31.781Z,62.69
2022-09-17T13:56:01.940Z,60.68
2022-09-17T13:58:28.193Z,60.23
2022-09-17T14:00:54.521Z,59.33
2022-09-17T14:03:20.879Z,58.38
2022-09-17T14:05:47.270Z,59.03
2022-09-17T14:08:13.958Z,58.46
2022-09-17T14:10:40.275Z,59.29
2022-09-17T14:13:06.542Z,57.58
2022-09-17T14:15:32.810Z,57.89
2022-09-17T14:17:59.072Z,58.12
2022-09-17T14:20:26.265Z,57.66
2022-09-17T14:22:52.530Z,58.82
2022-09-17T14:25:18.782Z,58.47
2022-09-17T14:27:45.031Z,58.44
2022-09-17T14:30:12.165Z,59.51
2022-09-17T14:32:39.251Z,58.72
2022-09-17T14:35:06.195Z,59.18
2022-09-17T14:37:32.461Z,58.92
2022-09-17T14:39:58.762Z,59.33
2022-09-17T14:42:25.020Z,58.09
2022-09-17T14:44:51.290Z,58.61
2022-09-17T14:47:17.569Z,57.06
2022-09-17T14:49:43.847Z,58.82
2022-09-17T14:52:10.100Z,58.78
2022-09-17T14:54:36.781Z,57.75
2022-09-17T14:57:03.159Z,57.41
2022-09-17T14:59:29.446Z,57.70
2022-09-17T15:01:55.765Z,58.04
2022-09-17T15:04:22.077Z,57.26
2022-09-17T15:06:48.336Z,57.61
2022-09-17T15:09:14.618Z,57.69
2022-09-17T15:11:41.143Z,57.92
2022-09-17T15:14:07.425Z,56.85
2022-09-17T15:16:34.803Z,58.73
2022-09-17T15:19:01.441Z,57.59
2022-09-17T15:21:27.810Z,58.20
2022-09-17T15:23:54.067Z,57.38
2022-09-17T15:26:20.325Z,56.66
2022-09-17T15:28:46.618Z,56.69
2022-09-17T15:31:12.919Z,57.03
2022-09-17T15:33:39.186Z,55.84
2022-09-17T15:36:07.873Z,55.58
2022-09-17T15:38:34.256Z,56.28
2022-09-17T15:41:00.512Z,56.32
2022-09-17T15:43:27.192Z,56.66
2022-09-17T15:45:53.452Z,56.19
2022-09-17T15:48:19.715Z,57.53
2022-09-17T15:50:46.067Z,55.93
2022-09-17T15:53:12.580Z,56.50
2022-09-17T15:55:40.859Z,55.46
2022-09-17T15:58:07.112Z,54.04
2022-09-17T16:00:33.377Z,52.20
2022-09-17T16:02:59.669Z,52.12
2022-09-17T16:05:25.974Z,52.38
2022-09-17T16:07:52.234Z,51.97
2022-09-17T16:10:18.490Z,52.26
2022-09-17T16:12:44.929Z,52.50
2022-09-17T16:15:11.363Z,53.37
2022-09-17T16:17:37.949Z,52.48
2022-09-17T16:20:06.389Z,52.88
2022-09-17T16:22:33.156Z,54.33
2022-09-17T16:24:59.422Z,53.69
2022-09-17T16:27:25.703Z,55.02
2022-09-17T16:29:52.561Z,53.58
2022-09-17T16:32:18.829Z,56.19
2022-09-17T16:34:45.084Z,55.60
2022-09-17T16:37:11.439Z,56.45
2022-09-17T16:39:37.692Z,55.05
2022-09-17T16:42:03.947Z,56.17
2022-09-17T16:44:30.232Z,56.41
2022-09-17T16:46:56.553Z,56.07
2022-09-17T16:49:22.864Z,56.84
2022-09-17T16:51:49.236Z,56.26
2022-09-17T16:54:15.488Z,56.25
2022-09-17T16:56:41.761Z,55.89
2022-09-17T16:59:08.031Z,56.75
2022-09-17T17:01:34.629Z,57.04
2022-09-17T17:04:01.114Z,58.43
2022-09-17T17:06:27.463Z,61.39
2022-09-17T17:08:53.790Z,61.91
2022-09-17T17:11:20.049Z,60.81
2022-09-17T17:13:46.320Z,61.62
2022-09-17T17:16:12.721Z,61.26
2022-09-17T17:18:39.160Z,61.80
2022-09-17T17:21:05.539Z,62.38
2022-09-17T17:23:31.903Z,62.15
2022-09-17T17:25:58.160Z,61.56
2022-09-17T17:28:24.403Z,62.98
2022-09-17T17:30:50.667Z,63.83
2022-09-17T17:33:16.942Z,65.30
2022-09-17T17:35:43.485Z,66.12
2022-09-17T17:38:09.790Z,67.01
2022-09-17T17:40:36.095Z,67.44
2022-09-17T17:43:02.464Z,68.42
2022-09-17T17:45:28.714Z,64.96
2022-09-17T17:47:54.969Z,63.44
2022-09-17T17:50:21.276Z,61.85
2022-09-17T17:52:48.667Z,62.51
2022-09-17T17:55:14.933Z,63.35
2022-09-17T17:57:41.307Z,62.13
2022-09-17T18:00:07.556Z,63.00
2022-09-17T18:02:33.918Z,61.84
2022-09-17T18:05:04.078Z,62.61
2022-09-17T18:07:30.824Z,62.38
2022-09-17T18:09:57.071Z,62.56
2022-09-17T18:12:26.816Z,62.03
2022-09-17T18:14:53.428Z,62.44
2022-09-17T18:17:19.683Z,61.92
2022-09-17T18:19:45.936Z,62.71
2022-09-17T18:22:12.194Z,63.17
2022-09-17T18:24:38.452Z,63.01
2022-09-17T18:27:04.703Z,63.11
2022-09-17T18:29:31.039Z,62.96
2022-09-17T18:31:57.287Z,63.11
2022-09-17T18:34:23.532Z,63.94
2022-09-17T18:36:51.318Z,63.92
2022-09-17T18:39:56.507Z,64.76
2022-09-17T18:42:04.135Z,63.89
2022-09-17T18:44:30.388Z,64.04
2022-09-17T18:46:58.760Z,65.06
2022-09-17T18:49:25.044Z,65.24
2022-09-17T18:51:51.299Z,65.32
2022-09-17T18:54:17.591Z,65.54
2022-09-17T18:56:43.925Z,65.13
2022-09-17T18:59:10.215Z,65.28
2022-09-17T19:01:36.530Z,65.37
2022-09-17T19:04:02.852Z,65.21
2022-09-17T19:06:29.153Z,65.81
2022-09-17T19:08:55.780Z,65.52
2022-09-17T19:11:22.031Z,65.63
2022-09-17T19:13:50.087Z,66.02
2022-09-17T19:16:16.382Z,66.32
2022-09-17T19:18:42.719Z,65.58
2022-09-17T19:21:09.005Z,65.93
2022-09-17T19:23:35.999Z,66.22
2022-09-17T19:26:02.277Z,66.45
2022-09-17T19:28:28.542Z,66.63
2022-09-17T19:30:54.923Z,66.92
2022-09-17T19:33:21.298Z,67.43
2022-09-17T19:35:50.519Z,67.69
2022-09-17T19:38:17.237Z,67.46
2022-09-17T19:40:44.804Z,67.71
2022-09-17T19:43:11.056Z,67.50
2022-09-17T19:45:37.300Z,67.87
2022-09-17T19:48:03.559Z,68.02
2022-09-17T19:50:29.845Z,68.14
2022-09-17T19:52:56.390Z,68.54
2022-09-17T19:55:22.916Z,67.02
2022-09-17T19:57:49.238Z,68.39
2022-09-17T20:00:15.491Z,69.37
2022-09-17T20:02:41.856Z,70.32
2022-09-17T20:05:08.205Z,70.75
2022-09-17T20:07:34.932Z,72.90
2022-09-17T20:10:01.261Z,73.18
2022-09-17T20:12:27.682Z,73.58
2022-09-17T20:14:54.013Z,73.47
2022-09-17T20:17:20.303Z,73.77
2022-09-17T20:19:46.788Z,74.68
2022-09-17T20:22:13.097Z,74.87
2022-09-17T20:24:39.365Z,75.41
2022-09-17T20:27:05.629Z,75.56
2022-09-17T20:29:31.928Z,77.49
2022-09-17T20:31:58.199Z,78.17
2022-09-17T20:34:24.443Z,77.63
2022-09-17T20:37:02.006Z,77.97
2022-09-17T20:39:36.951Z,78.48
2022-09-17T20:42:03.218Z,78.28
2022-09-17T20:44:29.471Z,78.10
2022-09-17T20:46:55.947Z,78.20
2022-09-17T20:49:22.255Z,78.11
2022-09-17T20:51:48.524Z,78.51
2022-09-17T20:54:14.788Z,78.28
2022-09-17T20:56:41.077Z,78.63
2022-09-17T20:59:14.957Z,80.26
2022-09-17T21:01:41.348Z,81.02
2022-09-17T21:04:07.657Z,80.57
2022-09-17T21:06:33.983Z,80.67
2022-09-17T21:09:00.292Z,81.17
2022-09-17T21:11:26.607Z,81.04
2022-09-17T21:13:52.859Z,80.94
2022-09-17T21:19:09.413Z,81.29
2022-09-17T21:21:37.512Z,81.46
2022-09-17T21:24:03.863Z,80.47
2022-09-17T21:26:30.127Z,80.65
2022-09-17T21:28:56.386Z,80.76
2022-09-17T21:31:22.700Z,81.36
2022-09-17T21:33:50.849Z,79.73
2022-09-17T21:36:17.032Z,79.84
2022-09-17T21:38:43.280Z,80.19
2022-09-17T21:41:09.555Z,80.24
2022-09-17T21:43:35.815Z,80.46
2022-09-17T21:46:05.507Z,80.53
2022-09-17T21:48:31.856Z,80.64
2022-09-17T21:50:58.118Z,79.55
2022-09-17T21:53:24.381Z,79.49
2022-09-17T21:55:50.632Z,79.04
2022-09-17T21:58:16.893Z,79.19
2022-09-17T22:00:43.139Z,79.56
2022-09-17T22:03:10.269Z,79.52
2022-09-17T22:05:38.451Z,81.86
2022-09-17T22:08:04.649Z,82.69
2022-09-17T22:10:30.895Z,85.35
2022-09-17T22:12:57.163Z,86.74
2022-09-17T22:15:23.466Z,85.82
2022-09-17T22:17:49.725Z,86.24
2022-09-17T22:20:16.268Z,84.77
2022-09-17T22:22:42.548Z,84.82
2022-09-17T22:25:08.798Z,84.57
2022-09-17T22:27:35.075Z,84.14
2022-09-17T22:30:01.319Z,82.82
2022-09-17T22:32:28.624Z,81.63
2022-09-17T22:34:54.898Z,83.29
2022-09-17T22:37:21.158Z,81.88
2022-09-17T22:39:47.412Z,82.17
2022-09-17T22:42:13.685Z,81.39
2022-09-17T22:44:40.987Z,81.47
2022-09-17T22:47:07.251Z,81.21
2022-09-17T22:49:33.517Z,80.29
2022-09-17T22:51:59.768Z,81.43
2022-09-17T22:54:26.031Z,84.15
2022-09-17T22:56:52.291Z,83.50
2022-09-17T22:59:18.649Z,84.60
2022-09-17T23:01:45.013Z,84.18
2022-09-17T23:04:11.316Z,84.38
2022-09-17T23:06:38.229Z,85.04
2022-09-17T23:09:04.590Z,86.04
2022-09-17T23:11:31.136Z,85.92
2022-09-17T23:13:57.699Z,86.04
2022-09-17T23:16:23.964Z,85.05
2022-09-17T23:18:50.500Z,84.85
2022-09-17T23:21:16.865Z,86.46
2022-09-17T23:23:43.139Z,84.96
2022-09-17T23:26:09.391Z,85.25
2022-09-17T23:28:35.731Z,86.25
2022-09-17T23:31:02.035Z,86.92
2022-09-17T23:33:28.339Z,87.62
2022-09-17T23:35:54.587Z,88.21
2022-09-17T23:38:20.983Z,89.09
2022-09-17T23:40:47.239Z,88.90
2022-09-17T23:43:13.483Z,88.87
2022-09-17T23:45:39.755Z,89.29
2022-09-17T23:48:06.017Z,89.36
2022-09-17T23:50:32.281Z,89.92
2022-09-17T23:52:58.544Z,89.53
2022-09-17T23:55:24.824Z,90.42
2022-09-17T23:57:51.079Z,90.78
